Detall de PIREP

Printer-friendly versionPDF version

[2014/02/23 07:21:00]
Flight IATA:CT0001
Pilot Number:041
Company ICAO:CAT
Aircraft Type:BE20/A
PAX:3
Departing Airport: LEGE
Destination Airport: LELC
Alternate Airport:LEAL
Online: VATSIM
Route:MAMUK H110 SEROX A34 ALT
Flight Level:FL130
No Slew and time accel
No pause
Crash detect
Detect pilot in Cockpit between each 30 and 45 minutes
07:21 Zero fuel Weight: 8737 Lbs, Fuel Weight: 3677 Lbs
07:21 VATSIM:LEGE 230700Z 00000KT CAVOK 01/00 Q1023
07:21 VATSIM:LELC 230700Z 22002KT CAVOK 04/02 Q1023 NOSIG
07:21 VOICE CATALONIAN
07:29 Parking Brakes off
07:37 Take-off
07:37 Take off Weight: 12375 Lbs
07:37 Wind: 356º @ 000 Knots Heading: 015º
07:37 POS N41º 54´ 28´´ E002º 45´ 47´´
07:37 Gear Up: 138 Knots
07:37 Flaps:1 at 138 Knots
07:38 Flaps:0 at 145 Knots
07:50 TOC
07:50 Fuel Weight: 3471 Lb
07:52 Wind:303º@012 Knots Heading: 264º Ground Speed: 221 Knots Altitude 13293 ft
08:07 Wind:184º@012 Knots Heading: 248º Ground Speed: 223 Knots Altitude 13280 ft
08:22 Wind:148º@012 Knots Heading: 195º Ground Speed: 222 Knots Altitude 13264 ft
08:37 Wind:257º@012 Knots Heading: 203º Ground Speed: 224 Knots Altitude 13274 ft
08:52 Wind:272º@012 Knots Heading: 186º Ground Speed: 229 Knots Altitude 13290 ft
09:01 TOD
09:01 Fuel Weight: 2709 Lb
09:07 Wind:344º@005 Knots Heading: 181º Ground Speed: 215 Knots Altitude 6512 ft
09:17 Flaps:1 at 181 Knots
09:18 Gear Down: 159 Knots
09:18 Flaps:2 at 153 Knots
09:20 TouchDown:Rate -11 ft/min Speed: 104 Knots
09:20 Flaps:0 at 83 Knots
09:20 VATSIM:LELC 230900Z VRB01KT 9999 FEW005 11/03 Q1023 NOSIG
09:20 Land
09:20 Wind:266º@003 Knots
09:20 Heading: 223º
09:20 Flight Duration: 01:43
09:20 Landing Weight: 11334 Lbs
09:20 POS N37º 46´ 13´´ W000º 49´ 05´´
09:23 Parking brakes on
09:23 Block to Block Duration: 01:54
09:23 Final Fuel: 2588 Lbls
09:23 Spent Fuel: 1089 Lbls
09:23 Flight Length: 371 NM
09:23 TOD Land Length: 63 NM

Exportar CSV

Powered by Drupal - Modified by Danger4k